createdAt,value
2022-10-31T00:00:48.916Z,8.82
2022-10-31T00:03:16.242Z,11.52
2022-10-31T00:05:45.281Z,11.02
2022-10-31T00:08:11.940Z,11.23
2022-10-31T00:10:39.886Z,12.40
2022-10-31T00:13:07.179Z,11.27
2022-10-31T00:15:38.317Z,8.70
2022-10-31T00:18:06.387Z,10.45
2022-10-31T00:20:33.622Z,9.75
2022-10-31T00:23:03.910Z,12.55
2022-10-31T00:25:35.063Z,10.85
2022-10-31T00:28:02.137Z,11.85
2022-10-31T00:30:29.225Z,11.43
2022-10-31T00:32:56.093Z,12.95
2022-10-31T00:35:22.998Z,14.52
2022-10-31T00:37:49.725Z,14.15
2022-10-31T00:40:16.491Z,12.65
2022-10-31T00:42:43.155Z,15.30
2022-10-31T00:45:11.077Z,16.67
2022-10-31T00:47:38.011Z,11.82
2022-10-31T00:50:06.572Z,16.48
2022-10-31T00:52:33.243Z,16.02
2022-10-31T00:55:00.366Z,17.80
2022-10-31T00:57:27.214Z,16.58
2022-10-31T00:59:53.802Z,13.60
2022-10-31T01:02:20.645Z,15.80
2022-10-31T01:04:47.416Z,16.65
2022-10-31T01:07:14.999Z,19.00
2022-10-31T01:09:41.768Z,19.17
2022-10-31T01:12:08.917Z,19.58
2022-10-31T01:14:35.624Z,19.77
2022-10-31T01:17:02.665Z,20.05
2022-10-31T01:19:29.329Z,19.65
2022-10-31T01:21:56.526Z,22.35
2022-10-31T01:24:23.150Z,20.98
2022-10-31T01:26:49.877Z,22.30
2022-10-31T01:29:16.495Z,23.98
2022-10-31T01:31:43.377Z,24.70
2022-10-31T01:34:15.025Z,24.65
2022-10-31T01:36:42.252Z,27.25
2022-10-31T01:39:15.260Z,21.83
2022-10-31T01:41:44.786Z,27.42
2022-10-31T01:44:14.316Z,27.38
2022-10-31T01:46:49.412Z,24.80
2022-10-31T01:49:25.558Z,24.63
2022-10-31T01:51:59.218Z,25.00
2022-10-31T01:54:35.780Z,25.88
2022-10-31T01:57:04.789Z,25.60
2022-10-31T01:59:34.208Z,28.10
2022-10-31T02:02:01.285Z,27.50
2022-10-31T02:04:30.178Z,28.55
2022-10-31T02:07:19.350Z,23.73
2022-10-31T02:09:48.594Z,28.85
2022-10-31T02:12:16.225Z,30.83
2022-10-31T02:14:43.578Z,25.88
2022-10-31T02:17:10.279Z,27.98
2022-10-31T02:20:02.666Z,28.80
2022-10-31T02:22:41.025Z,24.10
2022-10-31T02:25:47.690Z,32.70
2022-10-31T02:28:50.726Z,27.55
2022-10-31T02:31:41.016Z,30.02
2022-10-31T02:34:30.500Z,27.88
2022-10-31T02:37:14.665Z,27.83
2022-10-31T02:39:57.442Z,28.02
2022-10-31T02:42:37.034Z,25.83
2022-10-31T02:45:15.334Z,29.63
2022-10-31T02:47:43.641Z,26.65
2022-10-31T02:50:22.812Z,27.35
2022-10-31T02:52:53.727Z,27.35
2022-10-31T02:55:26.563Z,28.15
2022-10-31T02:58:16.594Z,26.42
2022-10-31T03:01:10.651Z,28.13
2022-10-31T03:03:52.395Z,28.52
2022-10-31T03:06:38.881Z,22.70
2022-10-31T03:09:33.839Z,27.95
2022-10-31T03:12:06.270Z,23.10
2022-10-31T03:17:57.532Z,23.77
2022-10-31T03:20:36.361Z,26.65
2022-10-31T03:23:05.272Z,27.48
2022-10-31T03:25:33.565Z,28.45
2022-10-31T03:28:03.024Z,26.80
2022-10-31T03:30:33.206Z,24.52
2022-10-31T03:33:03.710Z,29.88
2022-10-31T03:35:33.154Z,24.83
2022-10-31T03:38:05.450Z,28.08
2022-10-31T03:40:37.736Z,25.42
2022-10-31T03:43:12.817Z,24.98
2022-10-31T03:45:46.315Z,23.92
2022-10-31T03:48:15.565Z,22.52
2022-10-31T03:51:02.203Z,25.55
2022-10-31T03:53:41.667Z,26.15
2022-10-31T03:56:11.023Z,22.02
2022-10-31T03:58:46.216Z,25.10
2022-10-31T04:01:16.614Z,25.73
2022-10-31T04:03:45.183Z,25.15
2022-10-31T04:06:15.419Z,23.85
2022-10-31T04:08:48.905Z,25.90
2022-10-31T04:11:17.296Z,26.45
2022-10-31T04:13:46.904Z,25.48
2022-10-31T04:16:17.179Z,27.33
2022-10-31T04:18:44.451Z,27.05
2022-10-31T04:21:11.149Z,27.40
2022-10-31T04:23:38.290Z,27.08
2022-10-31T04:26:04.999Z,28.65
2022-10-31T04:28:31.645Z,28.60
2022-10-31T04:30:58.281Z,25.98
2022-10-31T04:33:24.945Z,21.90
2022-10-31T04:35:51.624Z,24.95
2022-10-31T04:38:18.273Z,24.70
2022-10-31T04:40:46.400Z,25.27
2022-10-31T04:43:13.161Z,24.70
2022-10-31T04:45:39.980Z,24.92
2022-10-31T04:48:06.686Z,21.60
2022-10-31T04:50:33.251Z,24.42
2022-10-31T04:52:59.896Z,24.90
2022-10-31T04:55:26.536Z,24.58
2022-10-31T04:57:53.131Z,24.48
2022-10-31T05:00:22.172Z,22.77
2022-10-31T05:02:51.034Z,21.25
2022-10-31T05:05:19.780Z,21.45
2022-10-31T05:07:48.261Z,19.90
2022-10-31T05:10:20.397Z,22.90
2022-10-31T05:12:48.981Z,21.25
2022-10-31T05:15:16.994Z,19.73
2022-10-31T05:17:44.114Z,22.48
2022-10-31T05:20:12.240Z,18.60
2022-10-31T05:22:45.437Z,21.00
2022-10-31T05:25:12.557Z,21.25
2022-10-31T05:27:44.283Z,19.92
2022-10-31T05:30:12.877Z,20.92
2022-10-31T05:32:45.607Z,20.67
2022-10-31T05:35:18.267Z,17.58
2022-10-31T05:37:44.916Z,21.73
2022-10-31T05:40:14.157Z,20.73
2022-10-31T05:42:42.259Z,20.70
2022-10-31T05:45:14.625Z,21.23
2022-10-31T05:50:09.784Z,18.10
2022-10-31T05:52:36.715Z,20.25
2022-10-31T05:55:04.259Z,21.38
2022-10-31T05:57:33.431Z,23.58
2022-10-31T06:00:00.185Z,23.30
2022-10-31T06:02:27.685Z,20.85
2022-10-31T06:04:54.341Z,20.40
2022-10-31T06:07:21.114Z,21.15
2022-10-31T06:09:47.683Z,22.40
2022-10-31T06:12:14.350Z,24.45
2022-10-31T06:14:40.987Z,19.08
2022-10-31T06:17:07.640Z,19.33
2022-10-31T06:19:34.245Z,20.45
2022-10-31T06:22:00.975Z,20.83
2022-10-31T06:24:30.727Z,16.55
2022-10-31T06:26:57.379Z,16.88
2022-10-31T06:29:24.005Z,15.65
2022-10-31T06:31:52.830Z,13.68
2022-10-31T06:34:19.387Z,14.13
2022-10-31T06:36:47.760Z,19.85
2022-10-31T06:39:15.037Z,16.10
2022-10-31T06:41:42.451Z,15.45
2022-10-31T06:44:09.254Z,18.67
2022-10-31T06:46:35.853Z,17.23
2022-10-31T06:49:02.486Z,18.83
2022-10-31T06:51:29.130Z,16.38
2022-10-31T06:53:55.832Z,16.85
2022-10-31T06:56:22.511Z,17.00
2022-10-31T06:58:49.157Z,16.35
2022-10-31T07:01:15.876Z,14.95
2022-10-31T07:03:42.562Z,15.57
2022-10-31T07:06:09.184Z,14.13
2022-10-31T07:08:35.816Z,14.38
2022-10-31T07:11:02.432Z,16.27
2022-10-31T07:13:29.053Z,13.30
2022-10-31T07:16:00.707Z,12.15
2022-10-31T07:18:27.869Z,12.65
2022-10-31T07:20:54.649Z,12.20
2022-10-31T07:23:21.728Z,15.20
2022-10-31T07:25:48.466Z,11.18
2022-10-31T07:28:15.176Z,11.75
2022-10-31T07:30:41.793Z,14.93
2022-10-31T07:33:09.343Z,17.10
2022-10-31T07:35:36.191Z,15.02
2022-10-31T07:38:11.136Z,18.08
2022-10-31T07:40:38.013Z,17.08
2022-10-31T07:43:06.731Z,15.30
2022-10-31T07:45:38.458Z,14.00
2022-10-31T07:48:05.372Z,16.67
2022-10-31T07:50:34.886Z,15.77
2022-10-31T07:53:07.037Z,13.13
2022-10-31T07:55:34.641Z,16.70
2022-10-31T07:58:06.936Z,18.63
2022-10-31T08:03:12.498Z,16.13
2022-10-31T08:05:40.235Z,16.65
2022-10-31T08:08:10.167Z,18.85
2022-10-31T08:10:37.481Z,17.98
2022-10-31T08:13:14.940Z,18.65
2022-10-31T08:15:42.912Z,19.52
2022-10-31T08:18:16.040Z,19.95
2022-10-31T08:20:43.672Z,19.52
2022-10-31T08:23:12.087Z,17.52
2022-10-31T08:25:39.390Z,17.70
2022-10-31T08:28:07.698Z,19.25
2022-10-31T08:30:36.895Z,19.77
2022-10-31T08:33:12.396Z,16.05
2022-10-31T08:35:39.460Z,15.20
2022-10-31T08:38:06.576Z,19.65
2022-10-31T08:40:34.293Z,15.38
2022-10-31T08:43:03.234Z,15.45
2022-10-31T08:45:31.314Z,15.80
2022-10-31T08:48:00.051Z,15.50
2022-10-31T08:50:28.334Z,17.40
2022-10-31T08:53:09.764Z,15.07
2022-10-31T08:55:37.549Z,15.23
2022-10-31T08:58:06.052Z,15.65
2022-10-31T09:00:34.357Z,19.10
2022-10-31T09:03:22.522Z,13.48
2022-10-31T09:05:49.431Z,14.95
2022-10-31T09:08:17.459Z,18.00
2022-10-31T09:10:45.173Z,15.77
2022-10-31T09:13:14.618Z,19.02
2022-10-31T09:15:44.592Z,16.15
2022-10-31T09:18:12.655Z,18.58
2022-10-31T09:20:40.724Z,18.73
2022-10-31T09:23:13.085Z,19.17
2022-10-31T09:28:08.305Z,19.17
2022-10-31T09:30:36.597Z,16.55
2022-10-31T09:33:06.093Z,17.88
2022-10-31T09:35:33.462Z,17.40
2022-10-31T09:38:05.181Z,17.63
2022-10-31T09:40:40.900Z,18.90
2022-10-31T09:43:26.625Z,19.63
2022-10-31T09:46:05.281Z,15.88
2022-10-31T09:48:56.618Z,18.13
2022-10-31T09:51:43.021Z,15.63
2022-10-31T09:54:30.337Z,14.98
2022-10-31T09:57:01.084Z,16.48
2022-10-31T09:59:40.572Z,17.38
2022-10-31T10:02:18.518Z,17.95
2022-10-31T10:05:07.093Z,16.02
2022-10-31T10:07:33.659Z,17.00
2022-10-31T10:10:19.024Z,17.23
2022-10-31T10:13:08.135Z,17.90
2022-10-31T10:15:58.851Z,17.05
2022-10-31T10:18:49.065Z,16.10
2022-10-31T10:21:32.751Z,16.35
2022-10-31T10:24:02.176Z,19.77
2022-10-31T10:26:38.589Z,16.63
2022-10-31T10:29:20.003Z,19.08
2022-10-31T10:31:49.828Z,16.13
2022-10-31T10:34:36.105Z,15.88
2022-10-31T10:37:14.208Z,13.35
2022-10-31T10:39:46.209Z,15.73
2022-10-31T10:42:35.165Z,16.00
2022-10-31T10:45:34.846Z,14.48
2022-10-31T10:48:15.486Z,14.02
2022-10-31T10:50:51.143Z,15.07
2022-10-31T10:53:39.410Z,15.43
2022-10-31T10:56:31.486Z,15.32
2022-10-31T10:58:58.931Z,14.20
2022-10-31T11:01:26.286Z,15.40
2022-10-31T11:03:52.911Z,13.18
2022-10-31T11:06:28.810Z,13.82
2022-10-31T11:08:55.491Z,17.15
2022-10-31T11:11:28.783Z,13.98
2022-10-31T11:14:05.682Z,14.10
2022-10-31T11:16:41.455Z,15.23
2022-10-31T11:19:24.571Z,15.35
2022-10-31T11:21:54.265Z,14.80
2022-10-31T11:24:23.591Z,18.08
2022-10-31T11:26:51.856Z,14.55
2022-10-31T11:29:22.200Z,16.20
2022-10-31T11:31:53.082Z,16.85
2022-10-31T11:34:36.285Z,16.00
2022-10-31T11:37:17.005Z,14.15
2022-10-31T11:39:54.660Z,15.27
2022-10-31T11:42:24.129Z,16.70
2022-10-31T11:44:52.216Z,13.52
2022-10-31T11:47:29.421Z,13.07
2022-10-31T11:49:58.388Z,13.50
2022-10-31T11:52:28.744Z,15.38
2022-10-31T11:55:02.142Z,14.57
2022-10-31T11:57:30.283Z,14.82
2022-10-31T12:00:00.229Z,11.63
2022-10-31T12:02:27.775Z,12.20
2022-10-31T12:05:33.747Z,10.95
2022-10-31T12:08:04.286Z,12.52
2022-10-31T12:10:56.738Z,13.73
2022-10-31T12:13:33.302Z,15.15
2022-10-31T12:16:29.944Z,12.93
2022-10-31T12:19:14.396Z,14.95
2022-10-31T12:22:05.320Z,14.75
2022-10-31T12:24:46.504Z,13.68
2022-10-31T12:27:40.557Z,14.48
2022-10-31T12:30:19.896Z,15.05
2022-10-31T12:33:07.968Z,15.13
2022-10-31T12:36:20.553Z,13.00
2022-10-31T12:38:59.320Z,14.40
2022-10-31T12:41:47.973Z,13.00
2022-10-31T12:44:51.820Z,12.55
2022-10-31T12:47:39.645Z,12.43
2022-10-31T12:50:24.327Z,12.77
2022-10-31T12:53:35.807Z,11.38
2022-10-31T12:56:30.599Z,13.90
2022-10-31T12:59:27.786Z,16.67
2022-10-31T13:02:00.794Z,12.75
2022-10-31T13:05:02.156Z,13.95
2022-10-31T13:07:48.916Z,10.95
2022-10-31T13:10:28.180Z,11.27
2022-10-31T13:12:59.465Z,10.88
2022-10-31T13:15:30.441Z,11.07
2022-10-31T13:18:05.564Z,12.38
2022-10-31T13:20:42.661Z,11.75
2022-10-31T13:23:50.289Z,9.40
2022-10-31T13:26:48.322Z,12.65
2022-10-31T13:29:39.658Z,11.48
2022-10-31T13:32:07.956Z,9.88
2022-10-31T13:34:45.725Z,8.32
2022-10-31T13:37:38.996Z,9.35
2022-10-31T13:40:05.776Z,11.70
2022-10-31T13:42:44.476Z,11.25
2022-10-31T13:45:23.402Z,9.18
2022-10-31T13:48:01.210Z,10.43
2022-10-31T13:50:35.608Z,10.23
2022-10-31T13:53:17.612Z,12.52
2022-10-31T13:55:51.128Z,13.52
2022-10-31T13:58:26.259Z,15.75
2022-10-31T14:01:03.452Z,14.18
2022-10-31T14:03:57.783Z,13.52
2022-10-31T14:06:18.782Z,14.57
2022-10-31T14:08:52.864Z,13.75
2022-10-31T14:11:25.768Z,15.25
2022-10-31T14:13:52.560Z,14.57
2022-10-31T14:16:24.814Z,14.95
2022-10-31T14:19:15.626Z,16.50
2022-10-31T14:21:44.201Z,18.17
2022-10-31T14:24:29.295Z,18.50
2022-10-31T14:27:01.697Z,18.23
2022-10-31T14:32:08.600Z,16.70
2022-10-31T14:34:41.753Z,18.73
2022-10-31T14:37:39.378Z,21.70
2022-10-31T14:40:17.595Z,21.13
2022-10-31T14:42:59.338Z,21.25
2022-10-31T14:45:32.298Z,23.75
2022-10-31T14:48:14.581Z,22.20
2022-10-31T14:50:53.193Z,22.58
2022-10-31T14:53:35.947Z,21.08
2022-10-31T14:56:06.958Z,20.88
2022-10-31T14:58:46.731Z,24.15
2022-10-31T15:01:33.573Z,21.77
2022-10-31T15:04:26.891Z,21.02
2022-10-31T15:07:13.154Z,23.23
2022-10-31T15:09:44.302Z,24.25
2022-10-31T15:12:29.142Z,24.95
2022-10-31T15:14:57.223Z,25.30
2022-10-31T15:17:25.660Z,24.08
2022-10-31T15:19:53.693Z,25.50
2022-10-31T15:22:24.272Z,22.67
2022-10-31T15:24:57.076Z,22.27
2022-10-31T15:27:24.833Z,21.70
2022-10-31T15:29:56.954Z,21.55
2022-10-31T15:32:24.986Z,21.88
2022-10-31T15:34:53.671Z,21.77
2022-10-31T15:37:25.261Z,21.15
2022-10-31T15:39:52.545Z,22.83
2022-10-31T15:42:34.314Z,19.10
2022-10-31T15:45:18.641Z,22.15
2022-10-31T15:47:56.310Z,26.45
2022-10-31T15:50:41.366Z,27.73
2022-10-31T15:53:36.850Z,26.40
2022-10-31T15:56:09.257Z,24.63
2022-10-31T16:01:26.528Z,24.25
2022-10-31T16:04:11.429Z,25.30
2022-10-31T16:06:38.291Z,23.85
2022-10-31T16:09:21.710Z,26.98
2022-10-31T16:11:48.506Z,25.48
2022-10-31T16:14:25.840Z,27.08
2022-10-31T16:16:55.629Z,23.02
2022-10-31T16:19:32.169Z,23.73
2022-10-31T16:22:15.186Z,25.25
2022-10-31T16:24:54.469Z,22.90
2022-10-31T16:27:29.438Z,25.00
2022-10-31T16:29:57.913Z,23.08
2022-10-31T16:32:28.748Z,24.70
2022-10-31T16:35:10.578Z,23.05
2022-10-31T16:37:43.545Z,23.85
2022-10-31T16:40:15.105Z,25.58
2022-10-31T16:42:42.863Z,23.10
2022-10-31T16:45:17.992Z,21.58
2022-10-31T16:47:45.179Z,22.80
2022-10-31T16:50:20.606Z,20.85
2022-10-31T16:55:35.945Z,22.70
2022-10-31T16:58:03.676Z,22.77
2022-10-31T17:00:31.605Z,23.48
2022-10-31T17:02:58.228Z,24.90
2022-10-31T17:05:30.309Z,23.92
2022-10-31T17:08:00.883Z,25.58
2022-10-31T17:10:28.238Z,23.25
2022-10-31T17:12:57.357Z,22.35
2022-10-31T17:15:28.852Z,23.92
2022-10-31T17:17:55.835Z,21.67
2022-10-31T17:20:28.959Z,20.83
2022-10-31T17:22:56.569Z,21.42
2022-10-31T17:25:25.456Z,21.45
2022-10-31T17:27:52.191Z,22.23
2022-10-31T17:30:20.444Z,21.73
2022-10-31T17:32:47.854Z,21.20
2022-10-31T17:35:15.743Z,21.35
2022-10-31T17:37:43.727Z,24.70
2022-10-31T17:40:11.538Z,22.42
2022-10-31T17:42:38.679Z,23.20
2022-10-31T17:45:06.924Z,23.17
2022-10-31T17:47:34.212Z,21.13
2022-10-31T17:50:01.427Z,24.83
2022-10-31T17:52:28.029Z,23.05
2022-10-31T17:54:54.670Z,23.30
2022-10-31T17:57:21.341Z,20.73
2022-10-31T17:59:47.983Z,22.40
2022-10-31T18:02:14.662Z,23.95
2022-10-31T18:04:41.601Z,21.30
2022-10-31T18:07:08.455Z,21.63
2022-10-31T18:09:35.452Z,20.58
2022-10-31T18:12:02.076Z,26.55
2022-10-31T18:14:29.461Z,25.38
2022-10-31T18:16:56.078Z,22.75
2022-10-31T18:19:22.688Z,21.63
2022-10-31T18:21:49.319Z,26.02
2022-10-31T18:24:15.945Z,22.13
2022-10-31T18:26:42.554Z,27.45
2022-10-31T18:29:11.513Z,24.13
2022-10-31T18:31:38.351Z,23.20
2022-10-31T18:34:05.084Z,25.92
2022-10-31T18:36:31.916Z,23.63
2022-10-31T18:38:58.581Z,25.30
2022-10-31T18:41:25.336Z,24.77
2022-10-31T18:43:55.959Z,25.30
2022-10-31T18:46:22.569Z,25.08
2022-10-31T18:48:49.188Z,28.88
2022-10-31T18:51:18.194Z,25.05
2022-10-31T18:53:56.691Z,26.95
2022-10-31T18:56:24.201Z,27.80
2022-10-31T18:58:51.360Z,26.80
2022-10-31T19:01:20.020Z,32.60
2022-10-31T19:03:51.868Z,32.47
2022-10-31T19:06:18.492Z,27.92
2022-10-31T19:08:45.314Z,33.10
2022-10-31T19:11:14.225Z,32.72
2022-10-31T19:13:42.097Z,32.97
2022-10-31T19:16:12.012Z,31.17
2022-10-31T19:18:39.574Z,30.52
2022-10-31T19:21:07.861Z,31.23
2022-10-31T19:23:34.990Z,36.97
2022-10-31T19:26:02.250Z,38.38
2022-10-31T19:28:33.915Z,34.50
2022-10-31T19:31:00.854Z,33.70
2022-10-31T19:33:34.915Z,33.38
2022-10-31T19:36:08.319Z,31.42
2022-10-31T19:38:39.734Z,33.35
2022-10-31T19:41:11.817Z,34.67
2022-10-31T19:43:38.996Z,36.85
2022-10-31T19:46:07.753Z,34.15
2022-10-31T19:48:37.238Z,35.10
2022-10-31T19:51:09.940Z,34.85
2022-10-31T19:53:38.164Z,38.67
2022-10-31T19:56:10.645Z,38.75
2022-10-31T19:58:37.229Z,43.63
2022-10-31T20:01:11.490Z,36.17
2022-10-31T20:03:42.495Z,38.35
2022-10-31T20:06:33.273Z,41.78
2022-10-31T20:09:03.284Z,41.78
2022-10-31T20:11:30.242Z,37.47
2022-10-31T20:13:58.758Z,38.90
2022-10-31T20:16:26.890Z,43.58
2022-10-31T20:18:54.397Z,40.90
2022-10-31T20:21:26.292Z,39.22
2022-10-31T20:23:57.757Z,39.83
2022-10-31T20:26:25.535Z,37.83
2022-10-31T20:28:52.648Z,42.03
2022-10-31T20:31:22.081Z,39.30
2022-10-31T20:33:49.431Z,39.42
2022-10-31T20:36:19.447Z,40.80
2022-10-31T20:38:46.585Z,39.70
2022-10-31T20:41:13.825Z,40.28
2022-10-31T20:43:42.439Z,43.53
2022-10-31T20:46:20.720Z,40.63
2022-10-31T20:48:48.371Z,38.92
2022-10-31T20:51:20.956Z,42.10
2022-10-31T20:53:48.942Z,38.40
2022-10-31T20:56:17.891Z,43.17
2022-10-31T20:58:45.151Z,39.72
2022-10-31T21:01:15.597Z,39.88
2022-10-31T21:03:42.500Z,39.55
2022-10-31T21:06:09.899Z,40.92
2022-10-31T21:08:37.203Z,43.50
2022-10-31T21:11:09.142Z,43.85
2022-10-31T21:13:40.674Z,42.92
2022-10-31T21:16:15.137Z,38.78
2022-10-31T21:18:43.622Z,43.53
2022-10-31T21:21:14.035Z,43.53
2022-10-31T21:23:41.437Z,40.15
2022-10-31T21:26:11.310Z,41.25
2022-10-31T21:28:38.008Z,40.30
2022-10-31T21:31:13.909Z,40.72
2022-10-31T21:33:41.820Z,41.90
2022-10-31T21:36:09.221Z,44.70
2022-10-31T21:38:36.199Z,39.95
2022-10-31T21:41:05.682Z,40.85
2022-10-31T21:43:34.900Z,38.60
2022-10-31T21:46:26.560Z,45.97
2022-10-31T21:48:54.101Z,40.78
2022-10-31T21:51:29.400Z,42.88
2022-10-31T21:54:15.662Z,46.20
2022-10-31T21:56:43.042Z,39.22
2022-10-31T21:59:10.317Z,37.83
2022-10-31T22:01:37.522Z,42.28
2022-10-31T22:04:04.665Z,43.33
2022-10-31T22:06:31.699Z,39.67
2022-10-31T22:09:00.333Z,42.22
2022-10-31T22:11:30.195Z,41.25
2022-10-31T22:13:59.485Z,48.05
2022-10-31T22:16:28.890Z,43.75
2022-10-31T22:18:58.585Z,43.03
2022-10-31T22:21:27.555Z,43.05
2022-10-31T22:23:56.772Z,44.33
2022-10-31T22:26:24.365Z,43.22
2022-10-31T22:29:02.237Z,44.78
2022-10-31T22:31:30.593Z,39.80
2022-10-31T22:33:57.835Z,45.30
2022-10-31T22:36:26.767Z,46.80
2022-10-31T22:38:53.785Z,45.10
2022-10-31T22:41:23.101Z,43.17
2022-10-31T22:43:50.101Z,44.47
2022-10-31T22:46:20.138Z,41.80
2022-10-31T22:48:49.430Z,39.10
2022-10-31T22:51:22.109Z,42.70
2022-10-31T22:53:49.021Z,36.75
2022-10-31T22:56:19.304Z,39.25
2022-10-31T22:58:46.382Z,42.08
2022-10-31T23:01:18.938Z,42.17
2022-10-31T23:03:46.047Z,38.83
2022-10-31T23:06:15.654Z,41.88
2022-10-31T23:08:43.298Z,39.47
2022-10-31T23:11:23.892Z,41.53
2022-10-31T23:14:11.914Z,40.60
2022-10-31T23:16:47.845Z,39.88
2022-10-31T23:19:20.350Z,41.83
2022-10-31T23:21:56.669Z,47.95
2022-10-31T23:24:29.943Z,44.63
2022-10-31T23:27:07.713Z,43.55
2022-10-31T23:29:35.363Z,40.03
2022-10-31T23:32:03.016Z,36.80
2022-10-31T23:34:29.714Z,37.78
2022-10-31T23:36:56.794Z,39.40
2022-10-31T23:39:30.677Z,42.22
2022-10-31T23:41:57.280Z,39.90
2022-10-31T23:44:23.919Z,40.92
2022-10-31T23:46:50.686Z,45.88
2022-10-31T23:49:17.387Z,44.60
2022-10-31T23:51:44.105Z,37.50
2022-10-31T23:54:10.796Z,37.10
2022-10-31T23:56:37.529Z,34.88
2022-10-31T23:59:05.631Z,40.58
